Aérodrome :
LOGIN :

S'inscrire | Disclaimer

   EN    FR    IT 

 










Légende :    VFR   VFR Marginal   IFR   IFR Intensif   IFR Très Intensif
Visi : 
Plafond : 
>= 8 km
>= 3000ft
5 à 8 km
1000 à 3000 ft
1500m à 5 km
500 à 1000 ft
800 à 1500m
200 à 500 ft
< 800m
< 200 ft
Symboles :   Orages  Brouillard  Fortes neiges  Fortes précipitations  Vent > 20 kt
SIGMETs :   Divers  Orages  Givrage  Turbulence  Onde Orograph.  Cendres Volcan.






- Altitude de l'aérodrome : 2096 ft
- Code IATA : AUR


LFLW - Aurillac

DERNIER METAR :
  • 122000Z AUTO 01006KT 310V040 9999 TS ///CB 18/17 Q1017

METARs EXPIRÉS :
  • 121930Z AUTO 29006KT 220V350 4200 TSRA BR FEW017/// SCT041/// BKN074/// ///CB 19/17 Q1016
  • 121900Z AUTO 35003KT 9999 NCD 20/16 Q1016
  • 121830Z AUTO VRB02KT 9999 FEW052/// SCT098/// OVC120/// 21/16 Q1015
  • 121800Z AUTO 23008KT 190V260 9999 ///CB 22/16 Q1015
  • 121730Z AUTO 16007KT 120V220 9999 ///CB 26/11 Q1014

TAF TAF LFLW
Valide du 12 à 15h jusqu'au 13 à 00h UTC


121400Z 1215/1224 15010KT 9999 SCT065TCU
TEMPO 1215/1224 14015G25KT
TEMPO 1215/1221 VRB20G30KT 4000 TSRA SCT045 SCT060CB
PROB30
TEMPO 1216/1218 VRB30G40KT 2000 TSGR



MET'MAP, la Météo Aéronautique d'un coup d'oeil ! - Copyright ORBIFLY Décembre 2007 - Disclaimer

ORBIFLY MET'MAP TEAM :

Programmation & Développement : Alexandra Zaïnal
Sur une idée originale de : Baudouin d'Aumeries
Assistance à la programmation : Marc-Olivier Méhu
Soutien technique & logistique : Manuel Goepfert

Contact : metmap@orbifly.com




SOURCES & CREDITS :

   NOAA